This is the latest recevied weather packets stored in our database for station/object Kirchdorf. If no packets are shown the sender has not sent any weather packets the latest 10 day(s).
| Time | Temp. | Humidity | Pressure | Rain* | Wind** | Luminosity | Snow |
|---|---|---|---|---|---|---|---|
| 1787745730 | 27.22° C | 60% | 1016.5 hPa | 0 mm | - | - | - |
| 1787743931 | 26.11° C | 67% | 1016.6 hPa | 0 mm | - | - | - |
| 1787742134 | 25° C | 69% | 1016.8 hPa | 0 mm | - | - | - |
| 1787740330 | 24.44° C | 69% | 1017.1 hPa | 0 mm | - | - | - |
| 1787738530 | 23.33° C | 73% | 1017.4 hPa | 0 mm | - | - | - |
| 1787736730 | 22.78° C | 76% | 1017.5 hPa | 0 mm | - | - | - |
| 1787734930 | 21.67° C | 79% | 1017.7 hPa | 0 mm | - | - | - |
| 1787733130 | 20.56° C | 82% | 1017.6 hPa | 0 mm | - | - | - |
| 1787731330 | 20° C | 83% | 1017.5 hPa | 0 mm | - | - | - |
| 1787729531 | 18.89° C | 89% | 1017.4 hPa | 0 mm | - | - | - |
| 1787727730 | 17.22° C | 96% | 1017.7 hPa | 0 mm | - | - | - |
| 1787725929 | 16.67° C | 98% | 1017.1 hPa | 0 mm | - | - | - |
| 1787724130 | 15.56° C | 98% | 1017.1 hPa | 0 mm | - | - | - |
| 1787722330 | 15.56° C | 98% | 1017 hPa | 0 mm | - | - | - |
| 1787720529 | 15.56° C | 98% | 1017.1 hPa | 0 mm | - | - | - |
| 1787718729 | 15.56° C | 98% | 1016.7 hPa | 0 mm | - | - | - |
| 1787716929 | 15.56° C | 98% | 1016.6 hPa | 0 mm | - | - | - |
| 1787715130 | 15.56° C | 98% | 1016.5 hPa | 0 mm | - | - | - |
| 1787713330 | 15.56° C | 98% | 1016.4 hPa | 0 mm | - | - | - |
| 1787711529 | 15.56° C | 98% | 1016.4 hPa | 0 mm | - | - | - |
| 1787709729 | 15.56° C | 98% | 1016.4 hPa | 0 mm | - | - | - |
| 1787707930 | 15.56° C | 98% | 1016.3 hPa | 0 mm | - | - | - |
| 1787706129 | 15.56° C | 98% | 1016 hPa | 0 mm | - | - | - |
| 1787704332 | 15° C | 98% | 1016 hPa | 0 mm | - | - | - |
| 1787702531 | 15° C | 97% | 1015.9 hPa | 0 mm | - | - | - |
* Rain since midnight (hover to see other rain measurements)
** Current wind speed in m/s (hover to see current wind gust speed)